Time;durP1;ratioP1;P1;durP2;ratioP2;P2;SDS_P1;SDS_P2;PMS_P1;PMS_P2;Temp;Humidity;BMP_temperature;BMP_pressure;BME280_temperature;BME280_humidity;BME280_pressure;Samples;Min_cycle;Max_cycle;Signal;HPM_P1;HPM_P2
2022/05/14 00:00:38;;;;;;;26.43;24.70;;;12.70;81.30;;;;;;5137314;27;20455;-74
2022/05/14 00:03:04;;;;;;;25.73;24.00;;;12.70;81.40;;;;;;5142331;27;20459;-74
2022/05/14 00:05:31;;;;;;;26.00;24.50;;;12.70;81.40;;;;;;5139408;27;20502;-74
2022/05/14 00:07:59;;;;;;;25.27;23.67;;;12.70;81.30;;;;;;5140108;27;20457;-74
2022/05/14 00:10:29;;;;;;;25.63;24.30;;;12.60;81.50;;;;;;5130850;27;21024;-74
2022/05/14 00:13:04;;;;;;;25.13;23.63;;;12.60;81.60;;;;;;5132235;27;20467;-74
2022/05/14 00:15:32;;;;;;;25.00;23.50;;;12.50;81.80;;;;;;5144994;27;21051;-75
2022/05/14 00:17:59;;;;;;;25.53;24.10;;;12.50;82.00;;;;;;5140938;27;20456;-75
2022/05/14 00:20:28;;;;;;;25.43;23.90;;;12.50;82.00;;;;;;5145431;27;20834;-74
2022/05/14 00:22:55;;;;;;;25.80;24.30;;;12.50;81.90;;;;;;5132354;27;20468;-75
2022/05/14 00:25:23;;;;;;;25.03;23.63;;;12.50;82.10;;;;;;5143645;27;20485;-75
2022/05/14 00:27:50;;;;;;;25.43;23.87;;;12.50;82.00;;;;;;5141333;27;20460;-76
2022/05/14 00:30:19;;;;;;;25.43;23.93;;;12.40;82.10;;;;;;5143267;27;20451;-76
2022/05/14 00:32:47;;;;;;;26.17;24.10;;;12.40;82.20;;;;;;5133267;27;20539;-74
2022/05/14 00:35:15;;;;;;;24.50;23.00;;;12.30;82.40;;;;;;5140837;27;20506;-75
2022/05/14 00:37:43;;;;;;;25.20;23.80;;;12.30;82.30;;;;;;5152364;27;20466;-75
2022/05/14 00:40:14;;;;;;;24.50;23.20;;;12.30;82.30;;;;;;5146431;27;20458;-75
2022/05/14 00:42:43;;;;;;;24.63;23.33;;;12.40;81.90;;;;;;5131221;27;20542;-74
2022/05/14 00:45:12;;;;;;;25.10;23.70;;;12.40;81.70;;;;;;5135900;27;20471;-76
2022/05/14 00:47:42;;;;;;;25.10;23.60;;;12.40;81.50;;;;;;5149459;27;20457;-74
2022/05/14 00:50:15;;;;;;;24.60;23.13;;;12.50;81.20;;;;;;5132913;27;20463;-74
2022/05/14 00:52:42;;;;;;;24.73;23.17;;;12.40;81.40;;;;;;5140225;27;20925;-74
2022/05/14 00:55:10;;;;;;;25.47;23.93;;;12.40;81.40;;;;;;5129150;27;20824;-75
2022/05/14 00:57:40;;;;;;;26.37;24.70;;;12.40;81.60;;;;;;5140661;27;20456;-74
2022/05/14 01:00:11;;;;;;;25.33;24.13;;;12.40;81.50;;;;;;5144707;27;20481;-74
2022/05/14 01:02:39;;;;;;;25.63;24.13;;;12.30;81.50;;;;;;5142987;27;20478;-74
2022/05/14 01:05:07;;;;;;;24.60;23.30;;;12.20;81.80;;;;;;5141423;27;20570;-74
2022/05/14 01:07:36;;;;;;;25.47;24.17;;;12.20;82.00;;;;;;5143885;27;20451;-74
2022/05/14 01:10:05;;;;;;;25.63;24.43;;;12.20;82.20;;;;;;5134285;27;20456;-74
2022/05/14 01:12:34;;;;;;;26.63;25.10;;;12.10;82.30;;;;;;5141255;27;20956;-75
2022/05/14 01:15:12;;;;;;;26.00;24.50;;;12.10;82.60;;;;;;5136157;27;20486;-74
2022/05/14 01:17:40;;;;;;;25.80;24.40;;;12.00;82.80;;;;;;5142996;27;20664;-75
2022/05/14 01:20:08;;;;;;;26.30;24.70;;;12.10;82.80;;;;;;5128880;27;20452;-75
2022/05/14 01:22:48;;;;;;;26.60;25.20;;;12.10;82.40;;;;;;5143444;27;20463;-75
2022/05/14 01:28:09;;;;;;;26.30;24.60;;;12.10;82.40;;;;;;5129715;27;20908;-74
2022/05/14 01:30:43;;;;;;;24.53;23.13;;;12.00;82.60;;;;;;5142960;27;20455;-76
2022/05/14 01:33:10;;;;;;;24.73;23.33;;;12.10;82.40;;;;;;5130602;27;20454;-75
2022/05/14 01:35:39;;;;;;;24.90;23.50;;;12.00;82.50;;;;;;5134241;27;20482;-75
2022/05/14 01:38:06;;;;;;;24.33;23.03;;;12.00;82.90;;;;;;5136862;27;20473;-75
2022/05/14 01:40:34;;;;;;;25.77;24.10;;;12.00;83.10;;;;;;5147159;27;20537;-75
2022/05/14 01:43:01;;;;;;;24.67;23.20;;;12.00;83.00;;;;;;5135129;27;20537;-75
2022/05/14 01:45:29;;;;;;;24.70;23.40;;;11.90;82.90;;;;;;5142792;27;20516;-75
2022/05/14 01:47:56;;;;;;;24.50;23.10;;;11.90;83.00;;;;;;5135984;27;20529;-75
2022/05/14 01:50:23;;;;;;;24.67;23.37;;;11.90;83.30;;;;;;5140081;27;20821;-74
2022/05/14 01:52:50;;;;;;;24.97;23.20;;;11.90;83.60;;;;;;5129934;27;20456;-74
2022/05/14 01:55:17;;;;;;;24.50;23.20;;;11.80;83.70;;;;;;5133518;27;20567;-74
2022/05/14 01:57:44;;;;;;;25.13;23.70;;;11.80;83.70;;;;;;5129036;27;20448;-74
2022/05/14 02:00:16;;;;;;;25.00;23.60;;;11.80;83.70;;;;;;5130553;27;20451;-74
2022/05/14 02:02:44;;;;;;;25.07;23.57;;;11.80;83.70;;;;;;5144644;27;20578;-74
2022/05/14 02:05:12;;;;;;;24.70;23.37;;;11.70;83.50;;;;;;5144893;27;20817;-74
2022/05/14 02:07:39;;;;;;;24.23;22.80;;;11.60;83.70;;;;;;5144516;27;20456;-74
2022/05/14 02:10:07;;;;;;;25.17;23.57;;;11.60;83.70;;;;;;5131642;27;20457;-74
2022/05/14 02:12:34;;;;;;;25.37;23.77;;;11.60;83.60;;;;;;5127787;27;20837;-74
2022/05/14 02:15:01;;;;;;;24.83;23.43;;;11.50;83.70;;;;;;5127935;27;20845;-74
2022/05/14 02:17:28;;;;;;;24.87;23.47;;;11.50;84.00;;;;;;5133125;27;20465;-74
2022/05/14 02:19:57;;;;;;;24.67;23.27;;;11.50;84.00;;;;;;5131027;27;21099;-74
2022/05/14 02:22:24;;;;;;;24.83;23.20;;;11.40;84.20;;;;;;5128477;27;20462;-74
2022/05/14 02:24:51;;;;;;;25.53;23.83;;;11.40;84.50;;;;;;5136632;27;20470;-74
2022/05/14 02:27:17;;;;;;;24.70;23.23;;;11.40;84.50;;;;;;5150665;27;20451;-74
2022/05/14 02:29:54;;;;;;;24.07;22.60;;;11.50;84.40;;;;;;5150424;27;20451;-74
2022/05/14 02:32:23;;;;;;;23.83;22.57;;;11.40;84.30;;;;;;5141417;27;20967;-74
2022/05/14 02:34:51;;;;;;;23.93;22.70;;;11.40;84.10;;;;;;5137890;27;20478;-74
2022/05/14 02:37:22;;;;;;;24.10;22.80;;;11.40;84.30;;;;;;5148660;27;20454;-74
2022/05/14 02:39:49;;;;;;;24.37;23.00;;;11.40;84.00;;;;;;5143061;27;20450;-74
2022/05/14 02:42:16;;;;;;;23.90;22.70;;;11.40;84.40;;;;;;5147496;27;20486;-74
2022/05/14 02:44:43;;;;;;;23.60;22.37;;;11.40;84.10;;;;;;5140378;27;20983;-74
2022/05/14 02:47:11;;;;;;;23.77;22.47;;;11.40;83.70;;;;;;5144170;27;20455;-74
2022/05/14 02:49:38;;;;;;;25.30;23.70;;;11.40;83.80;;;;;;5149315;27;20466;-74
2022/05/14 02:52:06;;;;;;;25.23;23.77;;;11.30;84.50;;;;;;5144081;27;20467;-74
2022/05/14 02:54:35;;;;;;;24.90;23.40;;;11.30;84.40;;;;;;5144093;27;20476;-75
2022/05/14 02:57:02;;;;;;;24.93;23.63;;;11.30;84.60;;;;;;5132957;27;21095;-74
2022/05/14 02:59:29;;;;;;;24.43;22.93;;;11.30;84.60;;;;;;5133372;27;20994;-74
2022/05/14 03:01:56;;;;;;;23.87;22.47;;;11.30;84.80;;;;;;5142058;27;20540;-74
2022/05/14 03:04:25;;;;;;;24.00;22.53;;;11.30;84.80;;;;;;5137539;27;20478;-74
2022/05/14 03:06:53;;;;;;;24.53;23.13;;;11.30;84.50;;;;;;5152753;27;20537;-76
2022/05/14 03:09:20;;;;;;;24.20;22.70;;;11.20;84.60;;;;;;5146432;27;20458;-74
2022/05/14 03:11:49;;;;;;;24.03;22.53;;;11.20;84.90;;;;;;5147244;27;20463;-74
2022/05/14 03:14:16;;;;;;;24.57;23.27;;;11.20;84.80;;;;;;5144045;27;20590;-74
2022/05/14 03:16:44;;;;;;;24.63;23.23;;;11.20;84.90;;;;;;5141103;27;20478;-75
2022/05/14 03:19:11;;;;;;;25.27;23.67;;;11.20;85.00;;;;;;5130525;27;20463;-75
2022/05/14 03:21:39;;;;;;;24.90;23.50;;;11.20;85.10;;;;;;5149665;27;20549;-75
2022/05/14 03:24:07;;;;;;;24.00;22.60;;;11.20;84.90;;;;;;5140281;27;20481;-75
2022/05/14 03:26:35;;;;;;;24.00;22.70;;;11.20;85.00;;;;;;5131915;27;20448;-75
2022/05/14 03:29:03;;;;;;;24.30;23.00;;;11.20;85.00;;;;;;5134547;27;20447;-76
2022/05/14 03:31:32;;;;;;;24.97;23.43;;;11.20;84.90;;;;;;5144349;27;20463;-75
2022/05/14 03:33:58;;;;;;;25.00;23.60;;;11.30;84.80;;;;;;5141335;27;20483;-75
2022/05/14 03:36:27;;;;;;;28.17;26.67;;;11.30;84.60;;;;;;5137089;27;20476;-75
2022/05/14 03:38:54;;;;;;;25.80;24.40;;;11.30;84.50;;;;;;5130692;27;20607;-75
2022/05/14 03:41:21;;;;;;;26.10;24.40;;;11.40;84.50;;;;;;5140896;27;20459;-75
2022/05/14 03:43:48;;;;;;;26.07;24.20;;;11.40;84.30;;;;;;5144663;27;20539;-75
2022/05/14 03:46:17;;;;;;;24.47;22.97;;;11.40;84.30;;;;;;5138671;27;20559;-75
2022/05/14 03:48:45;;;;;;;25.00;23.40;;;11.50;84.10;;;;;;5140959;27;20462;-76
2022/05/14 03:51:11;;;;;;;24.37;22.93;;;11.50;84.10;;;;;;5132773;27;20475;-74
2022/05/14 03:53:40;;;;;;;24.63;23.23;;;11.50;84.20;;;;;;5146318;27;20455;-74
2022/05/14 03:56:07;;;;;;;24.10;22.70;;;11.50;84.20;;;;;;5142802;27;20477;-75
2022/05/14 03:58:35;;;;;;;25.00;23.50;;;11.50;84.00;;;;;;5138544;27;20457;-74
2022/05/14 04:01:02;;;;;;;25.40;23.70;;;11.60;84.10;;;;;;5142236;27;20465;-74
2022/05/14 04:03:32;;;;;;;26.00;24.33;;;11.60;83.90;;;;;;5142338;27;20469;-76
2022/05/14 04:05:59;;;;;;;25.70;24.10;;;11.70;83.70;;;;;;5131548;27;20941;-75
2022/05/14 04:08:26;;;;;;;25.30;23.90;;;11.70;83.60;;;;;;5139751;27;20466;-75
2022/05/14 04:10:53;;;;;;;25.80;24.30;;;11.70;83.40;;;;;;5134141;27;20456;-74
2022/05/14 04:13:21;;;;;;;25.03;23.57;;;11.90;83.20;;;;;;5139317;27;20460;-74
2022/05/14 04:15:48;;;;;;;27.13;25.50;;;11.90;82.90;;;;;;5132275;27;20478;-74
2022/05/14 04:18:15;;;;;;;25.53;24.07;;;12.00;82.80;;;;;;5147254;27;20465;-74
2022/05/14 04:20:43;;;;;;;25.77;23.80;;;12.00;82.30;;;;;;5133706;27;20543;-74
2022/05/14 04:23:10;;;;;;;25.40;23.80;;;12.00;82.30;;;;;;5141068;27;20473;-74
2022/05/14 04:25:37;;;;;;;28.73;26.83;;;12.10;82.20;;;;;;5144975;27;20510;-74
2022/05/14 04:28:05;;;;;;;24.73;23.23;;;12.20;82.00;;;;;;5139644;27;20456;-74
2022/05/14 04:30:32;;;;;;;23.40;22.00;;;12.30;81.50;;;;;;5134356;27;20454;-74
2022/05/14 04:32:58;;;;;;;25.13;23.53;;;12.30;81.10;;;;;;5131111;27;20467;-74
2022/05/14 04:35:25;;;;;;;25.23;23.73;;;12.40;80.80;;;;;;5135182;27;20847;-74
2022/05/14 04:37:54;;;;;;;25.47;23.87;;;12.40;80.80;;;;;;5131614;27;20802;-74
2022/05/14 04:40:21;;;;;;;25.37;23.87;;;12.50;80.40;;;;;;5131937;27;20451;-74
2022/05/14 04:42:48;;;;;;;26.93;25.40;;;12.50;80.60;;;;;;5135709;27;20454;-74
2022/05/14 04:45:15;;;;;;;25.20;23.80;;;12.50;80.70;;;;;;5141808;27;20492;-74
2022/05/14 04:47:42;;;;;;;24.87;23.57;;;12.60;80.10;;;;;;5136973;27;20456;-74
2022/05/14 04:50:11;;;;;;;25.90;24.30;;;12.70;79.30;;;;;;5136877;27;20941;-74
2022/05/14 04:52:38;;;;;;;25.20;23.50;;;12.70;79.40;;;;;;5136645;27;20463;-74
2022/05/14 04:55:08;;;;;;;25.60;24.07;;;12.80;79.30;;;;;;5141188;27;21040;-75
2022/05/14 04:57:35;;;;;;;25.10;23.70;;;12.70;79.30;;;;;;5137650;27;20550;-74
2022/05/14 05:00:02;;;;;;;25.87;24.20;;;12.80;79.50;;;;;;5144808;27;20541;-74
2022/05/14 05:05:14;;;;;;;25.93;24.40;;;13.00;79.40;;;;;;5130172;27;20462;-74
2022/05/14 05:07:41;;;;;;;28.53;26.63;;;13.00;79.00;;;;;;5129386;27;20979;-75
2022/05/14 05:10:09;;;;;;;26.33;24.73;;;13.10;79.10;;;;;;5129207;27;20463;-75
2022/05/14 05:12:36;;;;;;;25.50;24.10;;;13.10;78.90;;;;;;5143248;27;20455;-74
2022/05/14 05:15:04;;;;;;;24.90;23.30;;;13.30;78.70;;;;;;5140961;27;20554;-74
2022/05/14 05:17:31;;;;;;;29.00;27.37;;;13.40;78.70;;;;;;5144911;27;21038;-75
2022/05/14 05:19:58;;;;;;;26.23;24.43;;;13.50;78.50;;;;;;5147442;27;20457;-74
2022/05/14 05:22:25;;;;;;;25.90;24.40;;;13.60;78.00;;;;;;5137052;27;20456;-74
2022/05/14 05:24:51;;;;;;;27.53;26.03;;;13.70;77.50;;;;;;5132576;27;20904;-75
2022/05/14 05:27:20;;;;;;;26.00;24.50;;;13.80;77.20;;;;;;5131930;27;20796;-75
2022/05/14 05:29:47;;;;;;;27.67;25.83;;;13.80;77.20;;;;;;5132408;27;20442;-75
2022/05/14 05:32:14;;;;;;;27.50;25.70;;;13.90;76.80;;;;;;5140553;27;20960;-76
2022/05/14 05:34:41;;;;;;;25.13;23.53;;;14.00;76.70;;;;;;5141717;27;20843;-75
2022/05/14 05:37:08;;;;;;;26.07;24.57;;;14.10;76.60;;;;;;5146413;27;20515;-75
2022/05/14 05:39:35;;;;;;;25.97;24.33;;;14.20;76.30;;;;;;5138386;27;20529;-76
2022/05/14 05:42:02;;;;;;;25.13;23.63;;;14.30;76.00;;;;;;5134846;27;20447;-74
2022/05/14 05:44:30;;;;;;;24.60;23.20;;;14.40;76.00;;;;;;5144235;27;20470;-73
2022/05/14 05:46:57;;;;;;;27.03;25.33;;;14.40;76.50;;;;;;5128189;28;20460;-73
2022/05/14 05:49:24;;;;;;;46.77;42.70;;;14.50;76.40;;;;;;5132289;27;20541;-74
2022/05/14 05:51:54;;;;;;;35.40;32.77;;;14.60;76.00;;;;;;5138279;27;20458;-74
2022/05/14 05:57:05;;;;;;;33.37;31.10;;;14.80;75.70;;;;;;5141661;27;20591;-72
2022/05/14 05:59:33;;;;;;;27.37;25.70;;;14.90;75.00;;;;;;5136839;27;20457;-75
2022/05/14 06:02:01;;;;;;;27.30;25.70;;;15.10;74.20;;;;;;5140494;27;20827;-73
2022/05/14 06:04:27;;;;;;;25.20;23.80;;;15.10;73.80;;;;;;5134430;27;20476;-73
2022/05/14 06:06:54;;;;;;;27.17;25.47;;;15.30;72.80;;;;;;5147901;27;20972;-74
2022/05/14 06:09:25;;;;;;;30.53;28.50;;;15.30;72.40;;;;;;5140803;27;20877;-73
2022/05/14 06:11:52;;;;;;;29.03;27.20;;;15.40;72.50;;;;;;5139183;27;20963;-78
2022/05/14 06:14:19;;;;;;;28.30;26.40;;;15.50;72.40;;;;;;5140628;27;20474;-76
2022/05/14 06:16:50;;;;;;;41.00;37.63;;;15.60;72.30;;;;;;5138994;27;20900;-76
2022/05/14 06:19:16;;;;;;;28.00;26.40;;;15.70;72.00;;;;;;5136546;27;20452;-75
2022/05/14 06:21:43;;;;;;;29.10;27.30;;;16.00;70.90;;;;;;5145559;27;20455;-77
2022/05/14 06:24:11;;;;;;;26.07;24.37;;;16.10;69.80;;;;;;5147635;27;20508;-76
2022/05/14 06:26:38;;;;;;;31.40;29.13;;;16.10;69.80;;;;;;5147861;27;20471;-76
2022/05/14 06:29:06;;;;;;;25.90;24.30;;;16.20;69.50;;;;;;5142529;27;20824;-76
2022/05/14 06:31:33;;;;;;;28.03;26.17;;;16.30;68.90;;;;;;5134863;27;20443;-77
2022/05/14 06:34:01;;;;;;;28.17;26.50;;;16.40;68.60;;;;;;5133267;27;20858;-76
2022/05/14 06:36:28;;;;;;;25.87;24.47;;;16.50;68.40;;;;;;5146879;27;20472;-77
2022/05/14 06:38:55;;;;;;;25.53;24.13;;;16.60;67.90;;;;;;5144243;27;20456;-80
2022/05/14 06:41:22;;;;;;;25.80;24.40;;;16.70;67.10;;;;;;5136667;27;20530;-77
2022/05/14 06:43:49;;;;;;;25.50;23.90;;;16.80;66.60;;;;;;5148731;27;20565;-76
2022/05/14 06:46:16;;;;;;;26.43;24.70;;;16.90;66.20;;;;;;5143786;27;20448;-74
2022/05/14 06:48:43;;;;;;;25.90;24.30;;;17.00;66.00;;;;;;5136055;27;20476;-74
2022/05/14 06:51:17;;;;;;;26.57;24.67;;;17.10;65.50;;;;;;5149475;27;20458;-75
2022/05/14 06:53:44;;;;;;;26.40;24.70;;;17.20;65.20;;;;;;5138928;27;20479;-74
2022/05/14 06:56:14;;;;;;;27.83;26.03;;;17.40;65.20;;;;;;5140455;27;20467;-74
2022/05/14 06:58:44;;;;;;;25.80;24.30;;;17.50;64.80;;;;;;5150358;27;20526;-75
2022/05/14 07:01:11;;;;;;;25.50;23.80;;;17.60;64.20;;;;;;5150473;27;20907;-75
2022/05/14 07:06:39;;;;;;;25.80;24.00;;;17.90;63.90;;;;;;5145110;27;20443;-76
2022/05/14 07:09:07;;;;;;;26.13;24.73;;;18.00;63.50;;;;;;5145115;27;20461;-75
2022/05/14 07:11:35;;;;;;;25.70;24.20;;;18.20;62.70;;;;;;5146774;27;20456;-77
2022/05/14 07:14:02;;;;;;;26.30;24.70;;;18.30;62.10;;;;;;5145061;27;20821;-74
2022/05/14 07:16:29;;;;;;;25.80;24.00;;;18.30;61.70;;;;;;5145500;27;20474;-74
2022/05/14 07:18:56;;;;;;;26.27;24.73;;;18.50;61.20;;;;;;5150303;27;21005;-74
2022/05/14 07:21:24;;;;;;;25.10;23.70;;;18.50;60.80;;;;;;5148507;27;20496;-74
2022/05/14 07:23:53;;;;;;;25.80;24.20;;;18.40;61.10;;;;;;5135874;27;20519;-74
2022/05/14 07:26:20;;;;;;;26.30;24.63;;;18.60;61.10;;;;;;5144870;27;20481;-75
2022/05/14 07:28:49;;;;;;;25.27;23.87;;;18.70;60.90;;;;;;5149066;27;20447;-74
2022/05/14 07:31:16;;;;;;;25.43;23.93;;;18.90;60.50;;;;;;5148665;27;21261;-74
2022/05/14 07:33:43;;;;;;;25.23;23.50;;;19.00;59.90;;;;;;5150993;27;20773;-74
2022/05/14 07:36:15;;;;;;;25.97;24.20;;;19.10;58.80;;;;;;5146984;27;20485;-74
2022/05/14 07:38:42;;;;;;;25.50;24.00;;;19.00;59.00;;;;;;5148195;27;20534;-74
2022/05/14 07:41:13;;;;;;;25.40;23.90;;;19.10;59.00;;;;;;5149630;27;20454;-75
2022/05/14 07:43:42;;;;;;;26.57;24.60;;;19.20;58.50;;;;;;5130763;27;20459;-74
2022/05/14 07:46:16;;;;;;;32.00;30.30;;;19.30;58.00;;;;;;5137377;27;20538;-74
2022/05/14 07:48:43;;;;;;;27.80;26.20;;;19.40;57.70;;;;;;5145719;27;20467;-75
2022/05/14 07:51:12;;;;;;;26.27;24.67;;;19.40;57.80;;;;;;5142498;27;20461;-74
2022/05/14 07:53:39;;;;;;;25.77;24.07;;;19.40;58.50;;;;;;5140025;27;20454;-74
2022/05/14 07:56:08;;;;;;;27.00;25.03;;;19.30;59.40;;;;;;5149270;27;20458;-74
2022/05/14 07:58:42;;;;;;;26.03;24.43;;;19.40;59.70;;;;;;5137842;27;20463;-74
2022/05/14 08:01:09;;;;;;;28.33;26.03;;;19.40;59.60;;;;;;5133994;27;20448;-74
2022/05/14 08:03:36;;;;;;;26.52;24.73;;;19.50;59.40;;;;;;5132740;27;20452;-74
2022/05/14 08:06:03;;;;;;;27.80;25.83;;;19.60;59.10;;;;;;5150307;27;20289;-74
2022/05/14 08:08:30;;;;;;;27.30;25.70;;;19.70;59.60;;;;;;5150358;27;20494;-74
2022/05/14 08:10:57;;;;;;;27.57;25.60;;;19.70;59.20;;;;;;5130295;27;20462;-74
2022/05/14 08:13:26;;;;;;;28.20;25.90;;;19.70;59.20;;;;;;5146509;27;20460;-74
2022/05/14 08:15:55;;;;;;;29.83;28.03;;;19.40;60.10;;;;;;5142253;27;20481;-74
2022/05/14 08:18:22;;;;;;;26.27;24.83;;;19.40;60.80;;;;;;5149145;27;20533;-74
2022/05/14 08:20:51;;;;;;;28.00;26.20;;;19.60;60.10;;;;;;5149702;27;20546;-74
2022/05/14 08:26:04;;;;;;;26.40;24.80;;;19.70;59.50;;;;;;5137185;27;20447;-74
2022/05/14 08:28:32;;;;;;;26.63;25.07;;;19.70;58.90;;;;;;5137837;27;20459;-74
2022/05/14 08:31:00;;;;;;;29.03;27.20;;;19.70;58.90;;;;;;5139364;27;20458;-74
2022/05/14 08:33:27;;;;;;;29.23;27.43;;;19.70;58.80;;;;;;5141132;27;20473;-74
2022/05/14 08:35:54;;;;;;;26.70;24.80;;;19.90;59.30;;;;;;5137609;27;20489;-74
2022/05/14 08:38:23;;;;;;;27.37;25.57;;;19.90;58.70;;;;;;5134195;27;20478;-74
2022/05/14 08:40:55;;;;;;;28.20;26.37;;;20.10;58.20;;;;;;5146774;27;20458;-74
2022/05/14 08:43:27;;;;;;;26.33;24.83;;;20.30;57.80;;;;;;5149538;27;20462;-74
2022/05/14 08:45:55;;;;;;;28.00;26.30;;;20.50;57.40;;;;;;5133967;27;20787;-75
2022/05/14 08:48:26;;;;;;;27.20;25.53;;;20.70;57.10;;;;;;5133471;27;20452;-75
2022/05/14 08:50:58;;;;;;;27.60;26.00;;;20.90;56.60;;;;;;5135009;27;20462;-73
2022/05/14 08:53:29;;;;;;;29.57;27.57;;;21.00;55.60;;;;;;5138521;27;20448;-74
2022/05/14 08:56:14;;;;;;;26.83;25.20;;;21.10;55.40;;;;;;5141574;27;20456;-74
2022/05/14 08:58:57;;;;;;;25.73;24.10;;;21.10;55.00;;;;;;5145868;27;20551;-75
2022/05/14 09:01:29;;;;;;;28.83;27.00;;;21.10;55.00;;;;;;5150683;27;20455;-74
2022/05/14 09:03:57;;;;;;;28.00;26.40;;;21.30;55.00;;;;;;5140875;27;20503;-75
2022/05/14 09:06:25;;;;;;;25.80;24.50;;;21.40;54.60;;;;;;5129224;27;20538;-74
2022/05/14 09:08:51;;;;;;;26.63;25.00;;;21.30;54.20;;;;;;5129525;27;20458;-74
2022/05/14 09:11:23;;;;;;;27.13;25.33;;;21.40;54.20;;;;;;5128660;27;20466;-74
2022/05/14 09:13:54;;;;;;;26.43;24.60;;;21.40;54.30;;;;;;5129735;27;20779;-74
2022/05/14 09:16:25;;;;;;;27.23;25.23;;;21.40;53.70;;;;;;5136032;27;20456;-74
2022/05/14 09:18:53;;;;;;;28.47;26.50;;;21.30;54.00;;;;;;5132447;27;20454;-74
2022/05/14 09:21:24;;;;;;;26.37;24.67;;;21.30;53.80;;;;;;5129870;27;20884;-74
2022/05/14 09:23:55;;;;;;;26.50;24.90;;;21.40;53.90;;;;;;5129220;27;20490;-74
2022/05/14 09:26:27;;;;;;;25.63;24.13;;;21.50;53.60;;;;;;5128370;27;20469;-74
2022/05/14 09:28:56;;;;;;;26.47;24.50;;;21.60;52.90;;;;;;5129541;27;20456;-75
2022/05/14 09:31:32;;;;;;;25.33;23.73;;;21.60;53.00;;;;;;5145001;27;20453;-75
2022/05/14 09:34:07;;;;;;;26.23;24.33;;;21.60;53.30;;;;;;5128491;27;20475;-74
2022/05/14 09:36:37;;;;;;;26.00;24.50;;;21.40;53.60;;;;;;5132816;27;20453;-74
2022/05/14 09:39:08;;;;;;;27.50;25.87;;;21.40;54.10;;;;;;5144365;27;20550;-74
2022/05/14 09:41:43;;;;;;;26.13;24.20;;;21.30;53.90;;;;;;5148955;27;20466;-74
2022/05/14 09:44:17;;;;;;;26.53;24.60;;;21.00;54.50;;;;;;5149356;27;20508;-74
2022/05/14 09:46:44;;;;;;;26.23;24.73;;;21.10;54.60;;;;;;5147913;27;20494;-74
2022/05/14 09:49:20;;;;;;;28.23;26.53;;;21.10;54.40;;;;;;5148347;27;20526;-75
2022/05/14 09:51:53;;;;;;;26.73;24.63;;;21.20;54.60;;;;;;5141284;27;20948;-74
2022/05/14 09:54:23;;;;;;;25.20;23.70;;;21.40;54.30;;;;;;5147704;27;21003;-74
2022/05/14 09:57:13;;;;;;;26.37;24.50;;;21.50;53.70;;;;;;5134623;27;20467;-74
2022/05/14 09:59:59;;;;;;;25.37;23.70;;;21.30;53.40;;;;;;5129110;27;20451;-75
2022/05/14 10:02:44;;;;;;;25.90;24.30;;;21.50;53.50;;;;;;5141020;27;20549;-74
2022/05/14 10:05:17;;;;;;;27.10;25.00;;;21.80;52.70;;;;;;5142565;27;20502;-74
2022/05/14 10:07:50;;;;;;;26.40;24.80;;;21.80;52.60;;;;;;5129338;28;20876;-74
2022/05/14 10:10:27;;;;;;;26.50;24.80;;;21.80;52.00;;;;;;5142523;27;20463;-74
2022/05/14 10:13:01;;;;;;;26.30;24.60;;;21.50;53.90;;;;;;5141016;27;20979;-74
2022/05/14 10:15:38;;;;;;;28.37;26.27;;;21.50;54.40;;;;;;5149071;27;20498;-74
2022/05/14 10:18:15;;;;;;;25.57;23.97;;;21.70;54.00;;;;;;5149593;27;20557;-74
2022/05/14 10:20:50;;;;;;;25.60;24.00;;;21.70;53.70;;;;;;5137434;27;20451;-74
2022/05/14 10:26:46;;;;;;;28.03;26.30;;;21.80;54.00;;;;;;5147438;27;20489;-75
2022/05/14 10:29:36;;;;;;;27.13;25.40;;;22.10;53.60;;;;;;5130100;27;20448;-74
2022/05/14 10:32:05;;;;;;;25.67;23.97;;;22.30;52.70;;;;;;5145297;27;20940;-74
2022/05/14 10:34:48;;;;;;;26.13;24.27;;;22.30;52.00;;;;;;5138559;27;20506;-74
2022/05/14 10:37:24;;;;;;;26.43;24.73;;;22.40;51.60;;;;;;5138716;27;20791;-74
2022/05/14 10:40:03;;;;;;;25.90;24.10;;;22.20;52.30;;;;;;5141871;27;20970;-76
2022/05/14 10:42:39;;;;;;;26.77;25.00;;;22.20;52.30;;;;;;5147703;27;20447;-77
2022/05/14 10:45:10;;;;;;;25.83;24.33;;;22.20;52.80;;;;;;5142371;27;20483;-80
2022/05/14 10:47:44;;;;;;;27.77;26.10;;;22.20;52.50;;;;;;5152570;27;20450;-81
2022/05/14 10:50:17;;;;;;;26.63;24.93;;;22.10;52.50;;;;;;5145717;27;21019;-81
2022/05/14 10:52:45;;;;;;;27.57;25.87;;;22.10;52.70;;;;;;5136404;27;20478;-75
2022/05/14 10:55:25;;;;;;;25.70;24.10;;;22.20;52.70;;;;;;5146704;27;20472;-82
2022/05/14 10:57:57;;;;;;;26.03;24.37;;;22.50;52.20;;;;;;5141310;27;21050;-83
2022/05/14 11:00:38;;;;;;;26.73;24.97;;;22.40;52.00;;;;;;5140838;27;20516;-84
2022/05/14 11:03:13;;;;;;;30.17;28.30;;;22.60;51.80;;;;;;5137122;27;20490;-81
2022/05/14 11:06:06;;;;;;;27.33;25.50;;;22.70;52.00;;;;;;5142756;27;20534;-83
2022/05/14 11:08:36;;;;;;;26.53;24.93;;;22.90;51.00;;;;;;5151735;27;20458;-78
2022/05/14 11:11:15;;;;;;;28.10;26.30;;;22.90;50.40;;;;;;5143924;27;20447;-79
2022/05/14 11:13:53;;;;;;;26.00;24.30;;;22.80;50.40;;;;;;5136133;27;20465;-78
2022/05/14 11:16:20;;;;;;;26.67;25.17;;;22.70;50.80;;;;;;5140109;27;20459;-78
2022/05/14 11:18:49;;;;;;;26.33;24.73;;;22.80;50.60;;;;;;5138264;27;20567;-79
2022/05/14 11:21:22;;;;;;;27.40;25.80;;;22.60;51.00;;;;;;5132297;27;21019;-77
2022/05/14 11:23:54;;;;;;;26.63;25.10;;;22.60;51.30;;;;;;5138499;27;21144;-77
2022/05/14 11:26:24;;;;;;;26.10;24.60;;;22.60;50.80;;;;;;5134607;27;20444;-76
2022/05/14 11:29:16;;;;;;;26.40;24.90;;;22.60;51.20;;;;;;5136948;27;20454;-78
2022/05/14 11:31:56;;;;;;;28.33;26.67;;;22.60;51.00;;;;;;5132756;27;20455;-77
2022/05/14 11:34:27;;;;;;;28.43;26.20;;;22.80;51.20;;;;;;5140458;27;20479;-77
2022/05/14 11:36:56;;;;;;;29.30;27.10;;;23.00;51.50;;;;;;5134133;27;20458;-78
2022/05/14 11:39:33;;;;;;;27.10;25.23;;;23.20;50.70;;;;;;5133939;27;20482;-76
2022/05/14 11:42:28;;;;;;;26.90;25.40;;;23.30;50.00;;;;;;5136439;27;20454;-84
2022/05/14 11:45:01;;;;;;;27.03;25.50;;;23.20;49.60;;;;;;5116262;27;20464;-86
2022/05/14 11:47:52;;;;;;;28.30;26.50;;;23.10;49.80;;;;;;5135051;27;20483;-81
2022/05/14 11:50:24;;;;;;;27.93;25.97;;;23.30;49.50;;;;;;5133275;27;20456;-85
2022/05/14 11:53:02;;;;;;;26.60;25.20;;;23.30;49.10;;;;;;5140016;27;20512;-84
2022/05/14 11:55:34;;;;;;;27.40;25.60;;;23.40;48.90;;;;;;5140093;27;20970;-83
2022/05/14 11:58:07;;;;;;;27.00;25.23;;;23.40;48.60;;;;;;5143301;27;20534;-78
2022/05/14 12:00:35;;;;;;;28.93;27.23;;;23.30;48.60;;;;;;5140571;27;21183;-83
2022/05/14 12:03:13;;;;;;;26.77;25.17;;;23.30;48.80;;;;;;5135652;27;20528;-85
2022/05/14 12:05:47;;;;;;;26.60;25.00;;;23.40;48.60;;;;;;5132410;27;20478;-82
2022/05/14 12:08:43;;;;;;;26.23;24.73;;;23.40;48.70;;;;;;5139425;27;21173;-83
2022/05/14 12:11:32;;;;;;;27.40;25.67;;;23.40;48.60;;;;;;5131442;27;20470;-88
2022/05/14 12:14:08;;;;;;;28.20;26.50;;;23.50;48.30;;;;;;5133080;27;20474;-78
2022/05/14 12:16:40;;;;;;;27.80;26.20;;;23.40;48.40;;;;;;5141338;27;20461;-77
2022/05/14 12:19:15;;;;;;;28.90;27.07;;;23.40;48.20;;;;;;5138599;27;20478;-77
2022/05/14 12:21:44;;;;;;;29.00;27.30;;;23.50;47.90;;;;;;5131184;27;20455;-77
2022/05/14 12:24:20;;;;;;;26.07;24.57;;;23.60;48.30;;;;;;5136676;27;20483;-77
2022/05/14 12:26:48;;;;;;;29.97;28.37;;;23.90;48.60;;;;;;5134322;27;20456;-78
2022/05/14 12:29:20;;;;;;;28.53;27.03;;;24.10;47.40;;;;;;5132172;27;20586;-77
2022/05/14 12:34:37;;;;;;;28.63;26.33;;;23.90;47.30;;;;;;5131007;27;20474;-77
2022/05/14 12:37:15;;;;;;;27.60;26.10;;;23.90;46.90;;;;;;5132501;27;20447;-76
2022/05/14 12:39:44;;;;;;;30.40;28.80;;;23.90;46.80;;;;;;5139545;27;20482;-78
2022/05/14 12:42:12;;;;;;;26.67;25.07;;;24.00;47.10;;;;;;5138851;27;20508;-77
2022/05/14 12:44:44;;;;;;;27.73;26.13;;;23.90;47.10;;;;;;5137854;27;20989;-78
2022/05/14 12:47:12;;;;;;;28.50;26.80;;;23.90;46.80;;;;;;5136428;27;20462;-78
2022/05/14 12:49:43;;;;;;;26.23;24.63;;;24.00;46.90;;;;;;5147872;27;20439;-81
2022/05/14 12:52:16;;;;;;;26.30;24.70;;;24.10;46.80;;;;;;5135715;27;20539;-78
2022/05/14 12:54:52;;;;;;;25.40;23.97;;;24.20;46.30;;;;;;5135595;27;21019;-82
2022/05/14 12:57:21;;;;;;;27.47;25.77;;;24.10;46.80;;;;;;5139335;27;20452;-75
2022/05/14 12:59:49;;;;;;;26.27;24.67;;;24.20;46.00;;;;;;5133980;27;20476;-80
2022/05/14 13:02:20;;;;;;;26.77;25.07;;;24.10;46.40;;;;;;5136567;27;20970;-81